Time;durP1;ratioP1;P1;durP2;ratioP2;P2;SDS_P1;SDS_P2;PMS_P1;PMS_P2;Temp;Humidity;BMP_temperature;BMP_pressure;BME280_temperature;BME280_humidity;BME280_pressure;Samples;Min_cycle;Max_cycle;Signal;HPM_P1;HPM_P2
2023/01/20 00:02:05;;;;;;;4.43;3.43;;;;;;;;;;5060191;28;20178;-82
2023/01/20 00:04:30;;;;;;;7.17;4.70;;;;;;;;;;5066606;28;20192;-82
2023/01/20 00:06:55;;;;;;;6.70;3.80;;;;;;;;;;5064583;28;20189;-83
2023/01/20 00:09:21;;;;;;;7.10;4.23;;;;;;;;;;5070722;28;20227;-83
2023/01/20 00:11:46;;;;;;;5.47;3.97;;;;;;;;;;5079374;28;20216;-83
2023/01/20 00:14:11;;;;;;;6.20;4.60;;;;;;;;;;5062014;28;20171;-83
2023/01/20 00:16:37;;;;;;;6.10;3.47;;;;;;;;;;5071354;28;20182;-83
2023/01/20 00:19:02;;;;;;;6.40;3.70;;;;;;;;;;5063126;28;20190;-83
2023/01/20 00:21:27;;;;;;;6.03;4.33;;;;;;;;;;5067796;28;20220;-83
2023/01/20 00:23:52;;;;;;;6.77;3.63;;;;;;;;;;5070523;28;20274;-83
2023/01/20 00:26:18;;;;;;;6.70;4.17;;;;;;;;;;5066309;28;20214;-83
2023/01/20 00:28:44;;;;;;;5.67;3.70;;;;;;;;;;5064111;28;20185;-83
2023/01/20 00:31:23;;;;;;;5.90;3.73;;;;;;;;;;5066066;28;20174;-83
2023/01/20 00:33:49;;;;;;;5.40;3.70;;;;;;;;;;5077439;28;20246;-83
2023/01/20 00:36:15;;;;;;;6.00;3.67;;;;;;;;;;5070860;28;20187;-83
2023/01/20 00:38:41;;;;;;;5.47;3.60;;;;;;;;;;5067679;28;20218;-83
2023/01/20 00:41:06;;;;;;;6.20;3.70;;;;;;;;;;5072880;28;20189;-83
2023/01/20 00:43:32;;;;;;;4.53;3.53;;;;;;;;;;5063594;28;20173;-83
2023/01/20 00:45:57;;;;;;;7.07;4.63;;;;;;;;;;5088333;28;20176;-83
2023/01/20 00:48:22;;;;;;;5.27;4.13;;;;;;;;;;5066626;28;20201;-83
2023/01/20 00:50:47;;;;;;;6.37;4.57;;;;;;;;;;5064927;28;20289;-83
2023/01/20 00:53:13;;;;;;;5.70;4.23;;;;;;;;;;5066384;28;20184;-83
2023/01/20 00:55:38;;;;;;;5.27;4.03;;;;;;;;;;5074518;28;20165;-83
2023/01/20 00:58:03;;;;;;;7.33;4.83;;;;;;;;;;5070947;28;20179;-83
2023/01/20 01:00:28;;;;;;;6.53;4.03;;;;;;;;;;5064394;28;20174;-83
2023/01/20 01:02:53;;;;;;;6.43;3.97;;;;;;;;;;5076493;28;20218;-83
2023/01/20 01:05:20;;;;;;;5.00;3.93;;;;;;;;;;5082697;28;20192;-83
2023/01/20 01:07:45;;;;;;;4.87;4.17;;;;;;;;;;5064005;28;20213;-83
2023/01/20 01:10:10;;;;;;;5.33;4.17;;;;;;;;;;5061640;28;20228;-83
2023/01/20 01:12:36;;;;;;;6.53;4.13;;;;;;;;;;5066585;28;20252;-83
2023/01/20 01:15:01;;;;;;;5.27;4.10;;;;;;;;;;5070635;28;20180;-82
2023/01/20 01:17:26;;;;;;;4.97;3.80;;;;;;;;;;5070010;28;20170;-83
2023/01/20 01:19:51;;;;;;;6.17;4.37;;;;;;;;;;5080054;28;20170;-83
2023/01/20 01:22:17;;;;;;;5.60;4.07;;;;;;;;;;5072270;28;20173;-83
2023/01/20 01:24:43;;;;;;;7.07;4.33;;;;;;;;;;5083928;28;20235;-83
2023/01/20 01:27:08;;;;;;;7.13;4.50;;;;;;;;;;5072434;28;20206;-83
2023/01/20 01:29:33;;;;;;;6.30;4.30;;;;;;;;;;5081841;28;20243;-83
2023/01/20 01:31:58;;;;;;;5.97;4.80;;;;;;;;;;5069281;28;20174;-83
2023/01/20 01:34:24;;;;;;;9.27;5.27;;;;;;;;;;5079168;28;20199;-83
2023/01/20 01:36:49;;;;;;;8.50;5.00;;;;;;;;;;5078518;28;20212;-83
2023/01/20 01:39:14;;;;;;;7.33;4.53;;;;;;;;;;5065047;28;20226;-83
2023/01/20 01:41:39;;;;;;;6.43;4.47;;;;;;;;;;5068756;28;20219;-83
2023/01/20 01:44:12;;;;;;;5.80;4.17;;;;;;;;;;5064150;28;20210;-83
2023/01/20 01:46:52;;;;;;;5.57;4.60;;;;;;;;;;5020175;28;20201;-82
2023/01/20 01:49:25;;;;;;;6.10;4.50;;;;;;;;;;5069059;28;20275;-83
2023/01/20 01:51:53;;;;;;;5.60;4.40;;;;;;;;;;5073301;28;20169;-83
2023/01/20 01:54:21;;;;;;;5.23;4.50;;;;;;;;;;5063613;28;20206;-83
2023/01/20 01:56:47;;;;;;;5.73;4.40;;;;;;;;;;5071171;28;20177;-83
2023/01/20 01:59:13;;;;;;;6.50;4.17;;;;;;;;;;5068330;28;20229;-83
2023/01/20 02:01:39;;;;;;;6.73;4.10;;;;;;;;;;5068772;28;20257;-83
2023/01/20 02:04:07;;;;;;;6.53;3.80;;;;;;;;;;5070623;28;20186;-83
2023/01/20 02:06:34;;;;;;;5.27;4.30;;;;;;;;;;5074414;28;20223;-83
2023/01/20 02:09:00;;;;;;;4.47;3.77;;;;;;;;;;5086236;28;20197;-83
2023/01/20 02:11:25;;;;;;;5.50;4.10;;;;;;;;;;5072333;28;20173;-83
2023/01/20 02:13:50;;;;;;;5.10;3.97;;;;;;;;;;5084519;28;20178;-83
2023/01/20 02:16:26;;;;;;;5.93;3.53;;;;;;;;;;5065129;28;20177;-83
2023/01/20 02:18:54;;;;;;;3.93;3.13;;;;;;;;;;5071940;28;20185;-83
2023/01/20 02:21:48;;;;;;;4.87;3.73;;;;;;;;;;5072240;28;20345;-83
2023/01/20 02:24:33;;;;;;;5.27;3.17;;;;;;;;;;5071862;28;20182;-83
2023/01/20 02:27:08;;;;;;;3.83;2.70;;;;;;;;;;5066805;28;20185;-83
2023/01/20 02:29:52;;;;;;;3.60;3.00;;;;;;;;;;5064032;28;20201;-83
2023/01/20 02:32:40;;;;;;;5.83;3.40;;;;;;;;;;5064676;28;20170;-83
2023/01/20 02:35:08;;;;;;;4.60;3.13;;;;;;;;;;5054965;28;20201;-83
2023/01/20 02:37:43;;;;;;;4.00;3.33;;;;;;;;;;5078754;28;20236;-83
2023/01/20 02:40:11;;;;;;;3.97;3.10;;;;;;;;;;5070945;28;20266;-83
2023/01/20 02:42:40;;;;;;;4.90;3.40;;;;;;;;;;5063306;28;20186;-83
2023/01/20 02:45:08;;;;;;;3.83;3.27;;;;;;;;;;5065859;28;20217;-83
2023/01/20 02:47:35;;;;;;;3.47;2.73;;;;;;;;;;5067156;28;20228;-83
2023/01/20 02:50:10;;;;;;;5.33;4.40;;;;;;;;;;5061414;28;20214;-83
2023/01/20 02:52:38;;;;;;;4.67;3.10;;;;;;;;;;5065633;28;20181;-83
2023/01/20 02:55:06;;;;;;;4.27;3.00;;;;;;;;;;5062305;28;20182;-83
2023/01/20 02:57:34;;;;;;;4.50;3.07;;;;;;;;;;5075325;28;20261;-83
2023/01/20 03:00:04;;;;;;;5.60;3.17;;;;;;;;;;5072323;28;20178;-83
2023/01/20 03:02:29;;;;;;;4.53;3.13;;;;;;;;;;5071213;28;20178;-83
2023/01/20 03:04:55;;;;;;;3.00;2.70;;;;;;;;;;5064899;28;20183;-83
2023/01/20 03:07:22;;;;;;;5.17;2.70;;;;;;;;;;5069076;28;20224;-82
2023/01/20 03:09:49;;;;;;;4.27;3.43;;;;;;;;;;5063111;28;20199;-83
2023/01/20 03:12:21;;;;;;;3.53;2.97;;;;;;;;;;5069977;28;20181;-83
2023/01/20 03:14:46;;;;;;;4.33;3.23;;;;;;;;;;5069188;28;20176;-83
2023/01/20 03:17:11;;;;;;;3.03;2.43;;;;;;;;;;5070901;28;20178;-83
2023/01/20 03:19:36;;;;;;;3.63;3.27;;;;;;;;;;5074078;28;20192;-83
2023/01/20 03:22:01;;;;;;;3.80;3.20;;;;;;;;;;5068589;28;20185;-83
2023/01/20 03:24:28;;;;;;;6.07;3.80;;;;;;;;;;5062817;28;20170;-83
2023/01/20 03:26:53;;;;;;;3.70;3.00;;;;;;;;;;5068488;28;20204;-83
2023/01/20 03:29:18;;;;;;;3.93;3.03;;;;;;;;;;5070399;28;20201;-83
2023/01/20 03:31:46;;;;;;;4.17;3.10;;;;;;;;;;5080485;28;20175;-83
2023/01/20 03:34:14;;;;;;;7.93;3.40;;;;;;;;;;5076449;28;20177;-83
2023/01/20 03:36:40;;;;;;;4.43;3.17;;;;;;;;;;5064000;28;20256;-83
2023/01/20 03:39:05;;;;;;;5.13;2.80;;;;;;;;;;5066680;28;20320;-82
2023/01/20 03:41:39;;;;;;;4.43;3.80;;;;;;;;;;5066752;28;20284;-83
2023/01/20 03:44:09;;;;;;;4.47;3.40;;;;;;;;;;5075250;28;20186;-83
2023/01/20 03:46:41;;;;;;;4.17;2.90;;;;;;;;;;5068620;28;20209;-83
2023/01/20 03:49:16;;;;;;;5.07;3.47;;;;;;;;;;5068525;28;20244;-83
2023/01/20 03:51:49;;;;;;;3.73;2.87;;;;;;;;;;5059817;28;20185;-83
2023/01/20 03:54:18;;;;;;;5.43;3.40;;;;;;;;;;5068631;28;20193;-83
2023/01/20 03:56:48;;;;;;;3.83;3.17;;;;;;;;;;5080090;28;20173;-83
2023/01/20 03:59:14;;;;;;;5.43;3.83;;;;;;;;;;5066580;28;20174;-83
2023/01/20 04:01:41;;;;;;;4.17;3.23;;;;;;;;;;5078852;28;20455;-83
2023/01/20 04:04:08;;;;;;;6.87;3.70;;;;;;;;;;5063896;28;20249;-83
2023/01/20 04:06:33;;;;;;;5.23;3.50;;;;;;;;;;5065027;28;20215;-83
2023/01/20 04:09:06;;;;;;;5.67;3.90;;;;;;;;;;5069170;28;20216;-83
2023/01/20 04:11:33;;;;;;;7.23;4.90;;;;;;;;;;5077137;28;20183;-83
2023/01/20 04:13:58;;;;;;;4.87;3.70;;;;;;;;;;5069832;28;20177;-83
2023/01/20 04:16:24;;;;;;;9.10;3.40;;;;;;;;;;5067194;28;20173;-83
2023/01/20 04:18:50;;;;;;;4.87;3.37;;;;;;;;;;5065507;28;20296;-83
2023/01/20 04:21:35;;;;;;;4.23;3.67;;;;;;;;;;5065110;28;20182;-83
2023/01/20 04:24:04;;;;;;;5.47;3.97;;;;;;;;;;5060085;28;20204;-83
2023/01/20 04:26:29;;;;;;;6.37;4.33;;;;;;;;;;5067718;28;20180;-83
2023/01/20 04:28:54;;;;;;;8.13;3.93;;;;;;;;;;5070818;28;20189;-83
2023/01/20 04:31:19;;;;;;;5.27;4.23;;;;;;;;;;5065863;28;20201;-83
2023/01/20 04:33:44;;;;;;;7.57;4.70;;;;;;;;;;5068487;28;20173;-83
2023/01/20 04:36:10;;;;;;;8.97;4.43;;;;;;;;;;5076919;28;20201;-83
2023/01/20 04:38:35;;;;;;;5.63;4.57;;;;;;;;;;5071626;28;20221;-83
2023/01/20 04:41:00;;;;;;;8.73;4.80;;;;;;;;;;5071814;28;20184;-83
2023/01/20 04:43:25;;;;;;;8.80;5.10;;;;;;;;;;5067034;28;20209;-83
2023/01/20 04:45:50;;;;;;;9.83;5.70;;;;;;;;;;5066514;28;20177;-83
2023/01/20 04:48:16;;;;;;;6.93;5.00;;;;;;;;;;5069187;28;20459;-83
2023/01/20 04:50:41;;;;;;;6.40;4.53;;;;;;;;;;5072824;28;20201;-83
2023/01/20 04:53:09;;;;;;;10.03;5.37;;;;;;;;;;5076573;28;20219;-83
2023/01/20 04:55:34;;;;;;;6.33;4.10;;;;;;;;;;5074533;28;20177;-83
2023/01/20 04:57:59;;;;;;;7.13;4.67;;;;;;;;;;5072725;28;20173;-83
2023/01/20 05:00:25;;;;;;;7.30;5.27;;;;;;;;;;5087793;28;20589;-83
2023/01/20 05:02:50;;;;;;;5.43;4.13;;;;;;;;;;5069961;28;20173;-83
2023/01/20 05:05:15;;;;;;;5.67;3.90;;;;;;;;;;5072785;28;20193;-83
2023/01/20 05:07:40;;;;;;;5.53;4.00;;;;;;;;;;5068496;28;20180;-83
2023/01/20 05:10:06;;;;;;;5.87;3.93;;;;;;;;;;5078886;28;20202;-83
2023/01/20 05:12:31;;;;;;;7.83;4.33;;;;;;;;;;5073466;28;20265;-83
2023/01/20 05:14:56;;;;;;;6.93;4.33;;;;;;;;;;5068424;28;20171;-83
2023/01/20 05:17:22;;;;;;;7.53;5.07;;;;;;;;;;5073743;28;20185;-83
2023/01/20 05:19:47;;;;;;;6.57;4.67;;;;;;;;;;5068226;28;20177;-83
2023/01/20 05:22:12;;;;;;;8.37;4.70;;;;;;;;;;5072392;28;20276;-83
2023/01/20 05:24:37;;;;;;;17.20;11.03;;;;;;;;;;5069330;28;20263;-83
2023/01/20 05:27:03;;;;;;;8.57;5.93;;;;;;;;;;5072357;28;20177;-83
2023/01/20 05:29:28;;;;;;;8.13;4.50;;;;;;;;;;5064473;28;20205;-83
2023/01/20 05:31:53;;;;;;;5.83;4.43;;;;;;;;;;5074866;28;20177;-83
2023/01/20 05:34:19;;;;;;;8.10;5.17;;;;;;;;;;5064896;28;20220;-83
2023/01/20 05:36:44;;;;;;;5.33;4.67;;;;;;;;;;5075035;28;20189;-83
2023/01/20 05:39:09;;;;;;;5.57;4.70;;;;;;;;;;5078479;28;20229;-83
2023/01/20 05:41:34;;;;;;;7.07;4.77;;;;;;;;;;5067273;28;20205;-83
2023/01/20 05:44:00;;;;;;;5.50;3.77;;;;;;;;;;5065701;28;20216;-83
2023/01/20 05:46:25;;;;;;;5.67;4.10;;;;;;;;;;5069905;28;20211;-83
2023/01/20 05:48:50;;;;;;;5.17;4.03;;;;;;;;;;5068134;28;20178;-83
2023/01/20 05:51:15;;;;;;;8.07;5.00;;;;;;;;;;5068428;28;20182;-83
2023/01/20 05:53:40;;;;;;;5.93;4.07;;;;;;;;;;5086616;28;20229;-83
2023/01/20 05:56:06;;;;;;;5.57;3.97;;;;;;;;;;5070240;28;20166;-83
2023/01/20 05:58:32;;;;;;;5.10;4.03;;;;;;;;;;5083494;28;20175;-83
2023/01/20 06:01:07;;;;;;;6.10;4.23;;;;;;;;;;5065004;28;20220;-83
2023/01/20 06:03:32;;;;;;;4.87;3.43;;;;;;;;;;5066537;28;20185;-83
2023/01/20 06:05:58;;;;;;;5.50;3.40;;;;;;;;;;5071977;28;20204;-83
2023/01/20 06:08:23;;;;;;;5.97;3.90;;;;;;;;;;5071117;28;20318;-83
2023/01/20 06:10:48;;;;;;;5.97;4.10;;;;;;;;;;5075220;28;20189;-83
2023/01/20 06:13:14;;;;;;;7.93;4.80;;;;;;;;;;5063312;28;20260;-83
2023/01/20 06:15:39;;;;;;;7.80;5.43;;;;;;;;;;5065940;28;20176;-83
2023/01/20 06:18:04;;;;;;;9.37;5.17;;;;;;;;;;5066943;28;20201;-83
2023/01/20 06:20:30;;;;;;;5.37;4.00;;;;;;;;;;5071822;28;20231;-83
2023/01/20 06:22:55;;;;;;;4.70;3.80;;;;;;;;;;5079088;28;20204;-82
2023/01/20 06:25:20;;;;;;;14.53;8.10;;;;;;;;;;5057741;28;20191;-83
2023/01/20 06:27:45;;;;;;;7.53;4.50;;;;;;;;;;5069052;28;20169;-83
2023/01/20 06:30:10;;;;;;;5.97;3.87;;;;;;;;;;5071946;28;20197;-82
2023/01/20 06:32:36;;;;;;;6.33;4.50;;;;;;;;;;5078192;28;20423;-83
2023/01/20 06:35:01;;;;;;;7.90;5.43;;;;;;;;;;5065664;28;20201;-83
2023/01/20 06:37:26;;;;;;;5.97;4.47;;;;;;;;;;5075995;28;20173;-83
2023/01/20 06:39:51;;;;;;;5.07;4.33;;;;;;;;;;5073024;28;20224;-83
2023/01/20 06:42:16;;;;;;;4.80;4.30;;;;;;;;;;5064302;28;20213;-83
2023/01/20 06:44:42;;;;;;;7.00;5.57;;;;;;;;;;5061827;28;20182;-83
2023/01/20 06:47:07;;;;;;;9.07;5.30;;;;;;;;;;5063114;28;20186;-82
2023/01/20 06:49:32;;;;;;;6.67;4.60;;;;;;;;;;5061477;28;20201;-83
2023/01/20 06:51:58;;;;;;;7.50;4.87;;;;;;;;;;5066274;28;20174;-83
2023/01/20 06:54:23;;;;;;;6.47;4.70;;;;;;;;;;5067637;28;20188;-83
2023/01/20 06:56:48;;;;;;;6.73;5.00;;;;;;;;;;5067378;28;20182;-83
2023/01/20 06:59:13;;;;;;;6.27;4.83;;;;;;;;;;5067125;28;20198;-83
2023/01/20 07:01:39;;;;;;;6.13;5.13;;;;;;;;;;5078030;28;20173;-83
2023/01/20 07:04:04;;;;;;;7.33;5.27;;;;;;;;;;5068843;28;20205;-83
2023/01/20 07:06:34;;;;;;;6.50;5.03;;;;;;;;;;5060418;28;20409;-83
2023/01/20 07:09:00;;;;;;;7.73;4.83;;;;;;;;;;5057669;28;20188;-83
2023/01/20 07:11:26;;;;;;;7.50;6.63;;;;;;;;;;5060156;28;20265;-83
2023/01/20 07:13:51;;;;;;;10.47;6.27;;;;;;;;;;5063264;28;20223;-83
2023/01/20 07:16:16;;;;;;;8.77;6.30;;;;;;;;;;5060925;28;20194;-83
2023/01/20 07:18:42;;;;;;;10.23;5.77;;;;;;;;;;5079627;28;20170;-83
2023/01/20 07:21:09;;;;;;;10.77;6.03;;;;;;;;;;5060464;28;20186;-83
2023/01/20 07:23:34;;;;;;;9.90;5.80;;;;;;;;;;5064600;28;20177;-83
2023/01/20 07:26:00;;;;;;;10.27;6.57;;;;;;;;;;5065665;28;20192;-83
2023/01/20 07:28:26;;;;;;;5.90;5.23;;;;;;;;;;5064509;28;20210;-83
2023/01/20 07:30:51;;;;;;;9.07;4.83;;;;;;;;;;5069405;28;20216;-83
2023/01/20 07:33:16;;;;;;;5.80;4.53;;;;;;;;;;5066481;28;20177;-83
2023/01/20 07:35:42;;;;;;;9.07;5.23;;;;;;;;;;5065179;28;20206;-83
2023/01/20 07:38:07;;;;;;;5.30;4.17;;;;;;;;;;5064727;28;20241;-83
2023/01/20 07:40:32;;;;;;;6.77;4.80;;;;;;;;;;5075690;28;20189;-83
2023/01/20 07:42:57;;;;;;;8.40;5.23;;;;;;;;;;5062957;28;20182;-83
2023/01/20 07:45:22;;;;;;;10.30;5.90;;;;;;;;;;5064976;28;20186;-83
2023/01/20 07:47:47;;;;;;;4.57;3.90;;;;;;;;;;5075133;28;20173;-83
2023/01/20 07:50:13;;;;;;;13.17;5.10;;;;;;;;;;5070252;28;20215;-83
2023/01/20 07:52:38;;;;;;;21.90;18.13;;;;;;;;;;5061382;28;20181;-83
2023/01/20 07:55:03;;;;;;;48.43;32.53;;;;;;;;;;5056699;28;20185;-83
2023/01/20 07:57:29;;;;;;;37.10;25.43;;;;;;;;;;5063516;28;20272;-83
2023/01/20 07:59:54;;;;;;;12.33;8.97;;;;;;;;;;5065637;28;20196;-83
2023/01/20 08:02:19;;;;;;;8.43;5.77;;;;;;;;;;5062822;28;20196;-83
2023/01/20 08:04:44;;;;;;;8.40;5.70;;;;;;;;;;5065126;28;20177;-83
2023/01/20 08:07:09;;;;;;;7.73;5.67;;;;;;;;;;5066592;28;20181;-83
2023/01/20 08:09:35;;;;;;;6.43;4.93;;;;;;;;;;5068483;28;20330;-83
2023/01/20 08:12:01;;;;;;;6.23;5.23;;;;;;;;;;5063558;28;20178;-83
2023/01/20 08:14:26;;;;;;;7.83;5.13;;;;;;;;;;5056086;28;20260;-83
2023/01/20 08:16:51;;;;;;;7.83;6.07;;;;;;;;;;5058555;28;20180;-83
2023/01/20 08:19:16;;;;;;;8.33;5.63;;;;;;;;;;5069486;28;20168;-83
2023/01/20 08:21:41;;;;;;;10.10;5.37;;;;;;;;;;5067957;28;20205;-83
2023/01/20 08:24:09;;;;;;;7.87;5.93;;;;;;;;;;5065046;28;20249;-83
2023/01/20 08:26:34;;;;;;;7.40;6.13;;;;;;;;;;5061504;28;20177;-83
2023/01/20 08:29:07;;;;;;;5.60;4.83;;;;;;;;;;5061540;28;20300;-83
2023/01/20 08:31:32;;;;;;;5.57;4.97;;;;;;;;;;5063161;28;20184;-83
2023/01/20 08:33:57;;;;;;;8.20;5.20;;;;;;;;;;5070996;28;20263;-83
2023/01/20 08:36:24;;;;;;;7.30;5.20;;;;;;;;;;5058609;28;20209;-83
2023/01/20 08:38:49;;;;;;;6.77;5.10;;;;;;;;;;5062189;28;20221;-83
2023/01/20 08:41:16;;;;;;;8.93;5.87;;;;;;;;;;5064048;28;20191;-83
2023/01/20 08:43:41;;;;;;;8.13;4.47;;;;;;;;;;5065489;28;20175;-83
2023/01/20 08:46:09;;;;;;;7.23;5.00;;;;;;;;;;5063454;28;20178;-83
2023/01/20 08:48:35;;;;;;;8.97;5.63;;;;;;;;;;5063989;28;20181;-83
2023/01/20 08:51:06;;;;;;;8.83;5.87;;;;;;;;;;5074330;28;20204;-83
2023/01/20 08:53:31;;;;;;;11.50;6.63;;;;;;;;;;5064108;28;20256;-84
2023/01/20 08:55:57;;;;;;;10.80;6.37;;;;;;;;;;5063769;28;20456;-83
2023/01/20 08:58:23;;;;;;;8.20;7.00;;;;;;;;;;5066065;28;20247;-84
2023/01/20 09:00:48;;;;;;;8.23;5.50;;;;;;;;;;5058772;28;20174;-85
2023/01/20 09:03:13;;;;;;;11.03;7.27;;;;;;;;;;5063226;28;20212;-84
2023/01/20 09:05:38;;;;;;;7.30;5.63;;;;;;;;;;5063881;28;20238;-84
2023/01/20 09:08:04;;;;;;;11.30;6.83;;;;;;;;;;5065747;28;20181;-86
2023/01/20 09:10:31;;;;;;;10.23;8.00;;;;;;;;;;5067385;28;20199;-86
2023/01/20 09:12:56;;;;;;;12.23;7.10;;;;;;;;;;5062833;28;20579;-86
2023/01/20 09:15:21;;;;;;;7.87;6.20;;;;;;;;;;5076190;28;20314;-87
2023/01/20 09:17:53;;;;;;;11.07;6.27;;;;;;;;;;5073496;28;20175;-86
2023/01/20 09:20:18;;;;;;;10.87;7.50;;;;;;;;;;5064855;28;20178;-85
2023/01/20 09:22:43;;;;;;;12.07;7.77;;;;;;;;;;5069727;28;20180;-86
2023/01/20 09:25:09;;;;;;;11.90;7.33;;;;;;;;;;5074054;28;20177;-86
2023/01/20 09:27:35;;;;;;;9.33;6.53;;;;;;;;;;5068827;28;20173;-86
2023/01/20 09:30:00;;;;;;;8.17;6.10;;;;;;;;;;5063357;28;20190;-86
2023/01/20 09:32:25;;;;;;;8.90;6.27;;;;;;;;;;5069008;28;20208;-86
2023/01/20 09:34:50;;;;;;;13.03;6.00;;;;;;;;;;5078006;28;20178;-86
2023/01/20 09:45:39;;;;;;;8.80;6.17;;;;;;;;;;5067529;28;20204;-86
2023/01/20 09:54:01;;;;;;;8.90;7.03;;;;;;;;;;5084605;28;20184;-86
2023/01/20 09:56:29;;;;;;;18.43;9.60;;;;;;;;;;5054922;28;20181;-86
2023/01/20 09:59:14;;;;;;;13.87;8.53;;;;;;;;;;5063421;28;20178;-86
2023/01/20 10:01:52;;;;;;;9.13;5.80;;;;;;;;;;5065888;28;20233;-87
2023/01/20 10:04:32;;;;;;;10.40;6.40;;;;;;;;;;5074384;28;20180;-87
2023/01/20 10:07:09;;;;;;;7.73;6.03;;;;;;;;;;5090214;28;20477;-87
2023/01/20 10:09:37;;;;;;;10.87;5.30;;;;;;;;;;5063235;28;20201;-86
2023/01/20 10:12:22;;;;;;;6.80;5.50;;;;;;;;;;5063003;28;20174;-86
2023/01/20 10:14:59;;;;;;;8.63;6.40;;;;;;;;;;5067118;28;20182;-86
2023/01/20 10:17:45;;;;;;;7.67;5.23;;;;;;;;;;5068500;28;20268;-86
2023/01/20 10:20:15;;;;;;;9.57;4.93;;;;;;;;;;5086269;28;20189;-87
2023/01/20 10:22:57;;;;;;;7.93;4.90;;;;;;;;;;5067518;28;20201;-86
2023/01/20 10:25:28;;;;;;;7.00;4.80;;;;;;;;;;5068993;28;20272;-87
2023/01/20 10:28:23;;;;;;;8.60;4.60;;;;;;;;;;5064147;28;20177;-86
2023/01/20 10:30:49;;;;;;;11.77;5.27;;;;;;;;;;5047621;28;20213;-87
2023/01/20 10:33:19;;;;;;;7.00;5.27;;;;;;;;;;5071250;28;20185;-87
2023/01/20 10:35:50;;;;;;;7.30;5.03;;;;;;;;;;5069271;28;20197;-87
2023/01/20 10:38:21;;;;;;;5.80;4.77;;;;;;;;;;5072280;28;20279;-87
2023/01/20 10:40:51;;;;;;;7.10;4.67;;;;;;;;;;5079923;28;20180;-86
2023/01/20 10:43:17;;;;;;;6.40;4.47;;;;;;;;;;5071542;28;20174;-87
2023/01/20 10:45:42;;;;;;;9.80;5.57;;;;;;;;;;5064968;28;20260;-87
2023/01/20 10:48:33;;;;;;;34.57;20.20;;;;;;;;;;5071610;28;20182;-86
2023/01/20 10:51:05;;;;;;;10.20;8.40;;;;;;;;;;5066541;28;20213;-86
2023/01/20 10:53:32;;;;;;;6.13;5.13;;;;;;;;;;5084699;28;20170;-87
2023/01/20 10:56:05;;;;;;;7.30;4.87;;;;;;;;;;5069448;28;20240;-86
2023/01/20 10:58:31;;;;;;;8.17;4.87;;;;;;;;;;5081572;28;20173;-87
2023/01/20 11:00:58;;;;;;;5.57;4.77;;;;;;;;;;5069126;28;20190;-86
2023/01/20 11:03:24;;;;;;;6.37;4.33;;;;;;;;;;5065883;28;20221;-87
2023/01/20 11:05:50;;;;;;;4.80;3.80;;;;;;;;;;5066715;28;20212;-87
2023/01/20 11:08:24;;;;;;;4.43;3.93;;;;;;;;;;5068077;28;20181;-87
2023/01/20 11:10:52;;;;;;;8.93;5.17;;;;;;;;;;5065924;28;20298;-87
2023/01/20 11:13:17;;;;;;;6.63;5.00;;;;;;;;;;5081960;28;20171;-87
2023/01/20 11:15:44;;;;;;;4.87;4.00;;;;;;;;;;5072255;28;20170;-87
2023/01/20 11:18:13;;;;;;;5.50;4.20;;;;;;;;;;5070527;28;20196;-87
2023/01/20 11:20:46;;;;;;;6.50;4.67;;;;;;;;;;5057152;28;20206;-87
2023/01/20 11:23:22;;;;;;;6.50;4.27;;;;;;;;;;5057072;28;20188;-88
2023/01/20 11:25:55;;;;;;;5.80;4.37;;;;;;;;;;5075447;28;20185;-87
2023/01/20 11:28:21;;;;;;;9.53;5.20;;;;;;;;;;5067509;28;20181;-87
2023/01/20 11:30:49;;;;;;;10.17;6.23;;;;;;;;;;5066347;28;20198;-87
2023/01/20 11:33:15;;;;;;;5.20;3.90;;;;;;;;;;5060133;28;20205;-86
2023/01/20 11:35:55;;;;;;;6.03;4.27;;;;;;;;;;5070647;28;20221;-87
2023/01/20 11:38:21;;;;;;;7.37;4.10;;;;;;;;;;5059240;28;20217;-87
2023/01/20 11:40:50;;;;;;;5.37;4.03;;;;;;;;;;5067783;28;20193;-87
2023/01/20 11:43:26;;;;;;;5.70;3.97;;;;;;;;;;5077034;28;20185;-87
2023/01/20 11:46:07;;;;;;;5.37;4.63;;;;;;;;;;5054727;28;20186;-87
2023/01/20 11:48:33;;;;;;;5.73;3.80;;;;;;;;;;5072111;28;20198;-87
2023/01/20 11:51:00;;;;;;;6.90;4.50;;;;;;;;;;5084476;28;20205;-88
2023/01/20 11:53:26;;;;;;;4.37;3.77;;;;;;;;;;5072715;28;20255;-87
2023/01/20 11:55:51;;;;;;;7.40;4.07;;;;;;;;;;5061962;28;20182;-87
2023/01/20 11:58:19;;;;;;;4.03;3.20;;;;;;;;;;5070884;28;20200;-88
2023/01/20 12:00:44;;;;;;;4.83;3.47;;;;;;;;;;5066642;28;20183;-88
2023/01/20 12:03:09;;;;;;;6.27;3.80;;;;;;;;;;5062310;28;20185;-87
2023/01/20 12:05:40;;;;;;;3.80;3.33;;;;;;;;;;5071683;28;20167;-87
2023/01/20 12:08:09;;;;;;;4.40;3.93;;;;;;;;;;5070505;28;20179;-86
2023/01/20 12:10:36;;;;;;;6.53;3.70;;;;;;;;;;5075231;28;20277;-88
2023/01/20 12:13:10;;;;;;;5.43;3.13;;;;;;;;;;5066067;28;20190;-88
2023/01/20 12:15:39;;;;;;;8.97;4.37;;;;;;;;;;5072931;28;20185;-88
2023/01/20 12:18:19;;;;;;;6.83;4.10;;;;;;;;;;5078552;28;20206;-87
2023/01/20 12:20:46;;;;;;;4.37;3.57;;;;;;;;;;5066491;28;20199;-87
2023/01/20 12:23:13;;;;;;;3.70;3.27;;;;;;;;;;5070031;28;20179;-87
2023/01/20 12:25:45;;;;;;;10.00;5.87;;;;;;;;;;5063580;28;20197;-87
2023/01/20 12:28:29;;;;;;;5.73;3.67;;;;;;;;;;5066248;28;20175;-87
2023/01/20 12:31:01;;;;;;;5.63;4.23;;;;;;;;;;5062968;28;20208;-87
2023/01/20 12:33:29;;;;;;;4.17;3.33;;;;;;;;;;5068183;28;20186;-87
2023/01/20 12:35:54;;;;;;;6.53;3.53;;;;;;;;;;5069746;28;20234;-87
2023/01/20 12:38:19;;;;;;;5.07;3.57;;;;;;;;;;5067930;28;20241;-87
2023/01/20 12:40:45;;;;;;;5.83;3.97;;;;;;;;;;5075783;28;20194;-87
2023/01/20 12:43:28;;;;;;;5.20;3.73;;;;;;;;;;5077945;28;20174;-87
2023/01/20 12:45:58;;;;;;;5.43;3.77;;;;;;;;;;5066626;28;20277;-87
2023/01/20 12:48:55;;;;;;;4.03;2.60;;;;;;;;;;5065129;28;20201;-87
2023/01/20 12:51:41;;;;;;;4.93;3.50;;;;;;;;;;5033695;28;20259;-87
2023/01/20 12:54:06;;;;;;;3.93;3.53;;;;;;;;;;5069821;28;20179;-87
2023/01/20 12:56:39;;;;;;;6.37;3.40;;;;;;;;;;5078070;28;20173;-87
2023/01/20 12:59:15;;;;;;;4.97;3.57;;;;;;;;;;5065093;28;20242;-87
2023/01/20 13:01:41;;;;;;;5.60;3.77;;;;;;;;;;5069394;28;20199;-86
2023/01/20 13:04:25;;;;;;;4.00;3.30;;;;;;;;;;5063787;28;20429;-87
2023/01/20 13:07:09;;;;;;;5.33;3.87;;;;;;;;;;5065540;28;20199;-87
2023/01/20 13:09:39;;;;;;;5.57;3.60;;;;;;;;;;5062622;28;20209;-86
2023/01/20 13:12:23;;;;;;;3.50;3.10;;;;;;;;;;5079530;28;20253;-86
2023/01/20 13:14:55;;;;;;;5.37;3.30;;;;;;;;;;5065415;28;20182;-86
2023/01/20 13:17:55;;;;;;;5.37;3.43;;;;;;;;;;5070172;28;20207;-87
2023/01/20 13:20:22;;;;;;;4.73;3.77;;;;;;;;;;4988671;28;20190;-86
2023/01/20 13:22:48;;;;;;;6.10;3.20;;;;;;;;;;5052268;28;20184;-86
2023/01/20 13:25:15;;;;;;;3.70;3.10;;;;;;;;;;5075208;28;20187;-86
2023/01/20 13:27:41;;;;;;;5.93;3.27;;;;;;;;;;5073203;28;20174;-87
2023/01/20 13:30:27;;;;;;;2.93;2.63;;;;;;;;;;5073387;28;20201;-86
2023/01/20 13:33:00;;;;;;;3.40;3.00;;;;;;;;;;5068049;28;20194;-86
2023/01/20 13:35:26;;;;;;;5.50;3.93;;;;;;;;;;5068029;28;20205;-86
2023/01/20 13:37:58;;;;;;;4.00;2.80;;;;;;;;;;5072846;28;20173;-86
2023/01/20 13:40:33;;;;;;;2.83;2.60;;;;;;;;;;5073347;28;20243;-86
2023/01/20 13:42:58;;;;;;;6.07;2.70;;;;;;;;;;5061650;28;20190;-86
2023/01/20 13:45:24;;;;;;;4.73;2.93;;;;;;;;;;5072189;28;20315;-86
2023/01/20 13:48:08;;;;;;;5.07;2.90;;;;;;;;;;5074391;28;20384;-86
2023/01/20 13:50:37;;;;;;;3.90;2.73;;;;;;;;;;5060913;28;20314;-86
2023/01/20 13:53:02;;;;;;;5.13;2.90;;;;;;;;;;5080698;28;20469;-86
2023/01/20 13:55:39;;;;;;;3.23;2.80;;;;;;;;;;5077637;28;20204;-86
2023/01/20 13:58:24;;;;;;;3.67;2.73;;;;;;;;;;5076895;28;20199;-86
2023/01/20 14:00:52;;;;;;;3.40;2.87;;;;;;;;;;5070297;28;20181;-86
2023/01/20 14:03:17;;;;;;;4.97;3.97;;;;;;;;;;5064525;28;20180;-86
2023/01/20 14:05:47;;;;;;;4.47;2.80;;;;;;;;;;5063841;28;20182;-86
2023/01/20 14:08:13;;;;;;;4.20;2.87;;;;;;;;;;5062183;28;20193;-85
2023/01/20 14:10:39;;;;;;;4.47;3.63;;;;;;;;;;5067955;28;20205;-86
2023/01/20 14:13:08;;;;;;;5.43;4.10;;;;;;;;;;5062994;28;20188;-86
2023/01/20 14:15:35;;;;;;;4.23;3.80;;;;;;;;;;5070294;28;20263;-86
2023/01/20 14:18:00;;;;;;;5.97;3.80;;;;;;;;;;5066966;28;20182;-87
2023/01/20 14:20:26;;;;;;;4.60;3.20;;;;;;;;;;5068964;28;20222;-90
2023/01/20 14:22:51;;;;;;;6.07;2.80;;;;;;;;;;5066887;28;20177;-89
2023/01/20 14:25:32;;;;;;;4.03;2.53;;;;;;;;;;5062720;28;20189;-91
2023/01/20 14:27:57;;;;;;;4.17;2.73;;;;;;;;;;5066191;28;20185;-89
2023/01/20 14:30:23;;;;;;;3.03;2.73;;;;;;;;;;5070751;28;20190;-90
2023/01/20 14:32:49;;;;;;;3.67;2.20;;;;;;;;;;5066221;28;20181;-90
2023/01/20 14:35:16;;;;;;;4.80;3.00;;;;;;;;;;5071696;28;20212;-90
2023/01/20 14:37:42;;;;;;;3.97;2.10;;;;;;;;;;5073567;28;20183;-90
2023/01/20 14:40:10;;;;;;;5.50;2.63;;;;;;;;;;5064823;28;20320;-90
2023/01/20 14:42:37;;;;;;;5.20;2.23;;;;;;;;;;5072050;28;20181;-91
2023/01/20 14:45:16;;;;;;;4.30;2.40;;;;;;;;;;5061960;28;20201;-90
2023/01/20 14:47:41;;;;;;;2.87;2.27;;;;;;;;;;5081799;28;20183;-90
2023/01/20 14:50:10;;;;;;;2.40;2.13;;;;;;;;;;5065754;28;20482;-88
2023/01/20 14:52:35;;;;;;;2.27;2.07;;;;;;;;;;5071082;28;20175;-89
2023/01/20 14:55:00;;;;;;;3.40;2.40;;;;;;;;;;5072173;28;20181;-90
2023/01/20 14:57:30;;;;;;;3.07;2.37;;;;;;;;;;5068587;28;20210;-90
2023/01/20 15:00:14;;;;;;;2.67;2.47;;;;;;;;;;5065740;28;20263;-87
2023/01/20 15:02:41;;;;;;;2.80;2.40;;;;;;;;;;5069154;28;20227;-90